sensor_id;sensor_type;location;lat;lon;timestamp;pressure;altitude;pressure_sealevel;temperature;humidity
63946;BME280;50122;56.330;43.838;2023-07-02T20:18:09;99340.53;;;15.72;100.00
63946;BME280;50122;56.330;43.838;2023-07-02T20:20:38;99342.81;;;15.77;100.00
63946;BME280;50122;56.330;43.838;2023-07-02T20:23:05;99344.41;;;15.79;100.00
63946;BME280;50122;56.330;43.838;2023-07-02T20:25:39;99347.81;;;15.82;100.00
63946;BME280;50122;56.330;43.838;2023-07-02T20:28:16;99352.28;;;15.81;100.00
63946;BME280;50122;56.330;43.838;2023-07-02T20:30:42;99353.88;;;15.84;100.00
63946;BME280;50122;56.330;43.838;2023-07-02T20:33:14;99353.75;;;15.85;100.00
63946;BME280;50122;56.330;43.838;2023-07-02T20:35:57;99360.03;;;15.84;100.00
63946;BME280;50122;56.330;43.838;2023-07-02T20:38:25;99365.22;;;15.86;100.00
63946;BME280;50122;56.330;43.838;2023-07-02T20:40:59;99360.91;;;15.85;100.00
63946;BME280;50122;56.330;43.838;2023-07-02T20:43:30;99349.50;;;15.83;100.00
63946;BME280;50122;56.330;43.838;2023-07-02T20:45:59;99360.03;;;15.84;100.00
63946;BME280;50122;56.330;43.838;2023-07-02T20:48:27;99362.81;;;15.83;100.00
63946;BME280;50122;56.330;43.838;2023-07-02T20:50:54;99368.28;;;15.81;100.00
63946;BME280;50122;56.330;43.838;2023-07-02T20:53:23;99368.28;;;15.81;100.00
63946;BME280;50122;56.330;43.838;2023-07-02T20:55:53;99366.69;;;15.78;100.00
63946;BME280;50122;56.330;43.838;2023-07-02T20:58:22;99372.25;;;15.75;100.00
63946;BME280;50122;56.330;43.838;2023-07-02T21:00:49;99373.22;;;15.74;100.00
63946;BME280;50122;56.330;43.838;2023-07-02T21:03:26;99375.16;;;15.72;100.00
63946;BME280;50122;56.330;43.838;2023-07-02T21:05:56;99375.41;;;15.69;100.00
63946;BME280;50122;56.330;43.838;2023-07-02T21:08:25;99379.03;;;15.68;100.00
63946;BME280;50122;56.330;43.838;2023-07-02T21:10:52;99368.75;;;15.63;100.00
63946;BME280;50122;56.330;43.838;2023-07-02T21:13:19;99375.16;;;15.61;100.00
63946;BME280;50122;56.330;43.838;2023-07-02T21:15:55;99372.88;;;15.56;100.00
63946;BME280;50122;56.330;43.838;2023-07-02T21:18:26;99376.84;;;15.51;100.00
63946;BME280;50122;56.330;43.838;2023-07-02T21:20:53;99376.03;;;15.50;100.00
63946;BME280;50122;56.330;43.838;2023-07-02T21:23:20;99377.09;;;15.48;100.00
63946;BME280;50122;56.330;43.838;2023-07-02T21:25:55;99375.41;;;15.46;100.00
63946;BME280;50122;56.330;43.838;2023-07-02T21:28:22;99380.84;;;15.45;100.00
63946;BME280;50122;56.330;43.838;2023-07-02T21:30:49;99378.19;;;15.45;100.00
63946;BME280;50122;56.330;43.838;2023-07-02T21:33:16;99377.34;;;15.44;100.00
63946;BME280;50122;56.330;43.838;2023-07-02T21:35:43;99371.28;;;15.42;100.00
63946;BME280;50122;56.330;43.838;2023-07-02T21:38:10;99370.81;;;15.37;100.00
63946;BME280;50122;56.330;43.838;2023-07-02T21:40:37;99376.63;;;15.31;100.00
63946;BME280;50122;56.330;43.838;2023-07-02T21:43:04;99381.34;;;15.27;100.00
63946;BME280;50122;56.330;43.838;2023-07-02T21:45:33;99374.91;;;15.19;100.00
63946;BME280;50122;56.330;43.838;2023-07-02T21:47:59;99372.72;;;15.13;100.00
63946;BME280;50122;56.330;43.838;2023-07-02T21:50:26;99381.69;;;15.11;100.00
63946;BME280;50122;56.330;43.838;2023-07-02T21:52:53;99380.34;;;15.06;100.00
63946;BME280;50122;56.330;43.838;2023-07-02T21:55:19;99384.19;;;15.02;100.00
63946;BME280;50122;56.330;43.838;2023-07-02T21:57:46;99382.72;;;14.98;100.00
63946;BME280;50122;56.330;43.838;2023-07-02T22:00:13;99381.38;;;14.92;100.00
63946;BME280;50122;56.330;43.838;2023-07-02T22:02:40;99388.75;;;14.88;100.00
63946;BME280;50122;56.330;43.838;2023-07-02T22:05:07;99382.72;;;14.86;100.00
63946;BME280;50122;56.330;43.838;2023-07-02T22:07:35;99389.97;;;14.84;100.00
63946;BME280;50122;56.330;43.838;2023-07-02T22:10:03;99390.19;;;14.81;100.00
63946;BME280;50122;56.330;43.838;2023-07-02T22:12:29;99391.50;;;14.75;100.00
63946;BME280;50122;56.330;43.838;2023-07-02T22:14:56;99385.69;;;14.70;100.00
63946;BME280;50122;56.330;43.838;2023-07-02T22:17:23;99390.38;;;14.67;100.00
63946;BME280;50122;56.330;43.838;2023-07-02T22:19:50;99393.16;;;14.65;100.00
63946;BME280;50122;56.330;43.838;2023-07-02T22:22:16;99388.09;;;14.62;100.00
63946;BME280;50122;56.330;43.838;2023-07-02T22:24:43;99391.56;;;14.63;100.00
63946;BME280;50122;56.330;43.838;2023-07-02T22:27:12;99398.06;;;14.58;100.00
63946;BME280;50122;56.330;43.838;2023-07-02T22:29:41;99399.25;;;14.54;100.00
63946;BME280;50122;56.330;43.838;2023-07-02T22:32:08;99394.16;;;14.51;100.00
63946;BME280;50122;56.330;43.838;2023-07-02T22:34:35;99399.25;;;14.54;100.00
63946;BME280;50122;56.330;43.838;2023-07-02T22:37:02;99405.91;;;14.60;100.00
63946;BME280;50122;56.330;43.838;2023-07-02T22:39:29;99415.16;;;14.67;100.00
63946;BME280;50122;56.330;43.838;2023-07-02T22:41:56;99415.69;;;14.72;100.00
63946;BME280;50122;56.330;43.838;2023-07-02T22:44:22;99408.31;;;14.76;100.00
63946;BME280;50122;56.330;43.838;2023-07-02T22:46:49;99419.69;;;14.78;100.00
63946;BME280;50122;56.330;43.838;2023-07-02T22:49:16;99418.81;;;14.77;100.00
63946;BME280;50122;56.330;43.838;2023-07-02T22:51:43;99424.13;;;14.77;100.00
63946;BME280;50122;56.330;43.838;2023-07-02T22:54:13;99418.09;;;14.75;100.00
63946;BME280;50122;56.330;43.838;2023-07-02T22:56:40;99420.75;;;14.75;100.00
63946;BME280;50122;56.330;43.838;2023-07-02T22:59:07;99422.69;;;14.73;100.00
63946;BME280;50122;56.330;43.838;2023-07-02T23:01:33;99417.38;;;14.73;100.00
63946;BME280;50122;56.330;43.838;2023-07-02T23:04:00;99420.47;;;14.67;100.00
63946;BME280;50122;56.330;43.838;2023-07-02T23:06:34;99426.16;;;14.63;100.00
63946;BME280;50122;56.330;43.838;2023-07-02T23:09:00;99417.00;;;14.54;100.00
63946;BME280;50122;56.330;43.838;2023-07-02T23:11:27;99426.94;;;14.52;100.00
63946;BME280;50122;56.330;43.838;2023-07-02T23:13:53;99422.03;;;14.46;100.00
63946;BME280;50122;56.330;43.838;2023-07-02T23:16:22;99431.31;;;14.40;100.00
63946;BME280;50122;56.330;43.838;2023-07-02T23:18:50;99425.50;;;14.35;100.00
63946;BME280;50122;56.330;43.838;2023-07-02T23:21:17;99431.88;;;14.32;100.00
63946;BME280;50122;56.330;43.838;2023-07-02T23:23:44;99425.22;;;14.27;100.00
63946;BME280;50122;56.330;43.838;2023-07-02T23:26:11;99432.34;;;14.26;100.00
63946;BME280;50122;56.330;43.838;2023-07-02T23:28:45;99439.56;;;14.24;100.00
63946;BME280;50122;56.330;43.838;2023-07-02T23:31:24;99447.88;;;14.19;100.00
63946;BME280;50122;56.330;43.838;2023-07-02T23:33:53;99443.63;;;14.17;100.00
63946;BME280;50122;56.330;43.838;2023-07-02T23:36:20;99443.25;;;14.10;100.00
63946;BME280;50122;56.330;43.838;2023-07-02T23:38:48;99443.34;;;14.09;100.00
63946;BME280;50122;56.330;43.838;2023-07-02T23:41:16;99447.91;;;14.06;100.00
63946;BME280;50122;56.330;43.838;2023-07-02T23:43:43;99455.16;;;14.04;100.00
63946;BME280;50122;56.330;43.838;2023-07-02T23:46:10;99452.59;;;14.03;100.00
63946;BME280;50122;56.330;43.838;2023-07-02T23:48:37;99453.44;;;14.03;100.00
63946;BME280;50122;56.330;43.838;2023-07-02T23:51:04;99457.28;;;13.99;100.00
63946;BME280;50122;56.330;43.838;2023-07-02T23:53:31;99456.56;;;13.97;100.00
63946;BME280;50122;56.330;43.838;2023-07-02T23:55:57;99459.44;;;13.94;100.00
63946;BME280;50122;56.330;43.838;2023-07-02T23:58:24;99454.53;;;13.88;100.00
